sensor_id;sensor_type;location;lat;lon;timestamp;pressure;altitude;pressure_sealevel;temperature;humidity
60820;BME280;46641;48.904;9.126;2022-11-15T00:03:55;98361.53;;;14.09;57.37
60820;BME280;46641;48.904;9.126;2022-11-15T00:08:46;98359.91;;;14.08;57.43
60820;BME280;46641;48.904;9.126;2022-11-15T00:13:36;98349.19;;;14.10;57.24
60820;BME280;46641;48.904;9.126;2022-11-15T00:18:27;98350.00;;;14.10;57.17
60820;BME280;46641;48.904;9.126;2022-11-15T00:23:17;98355.47;;;14.09;57.59
60820;BME280;46641;48.904;9.126;2022-11-15T00:28:08;98350.19;;;14.09;57.48
60820;BME280;46641;48.904;9.126;2022-11-15T00:33:05;98348.56;;;14.08;57.78
60820;BME280;46641;48.904;9.126;2022-11-15T00:37:55;98338.03;;;14.08;57.50
60820;BME280;46641;48.904;9.126;2022-11-15T00:42:46;98343.94;;;14.10;57.51
60820;BME280;46641;48.904;9.126;2022-11-15T00:47:36;98332.59;;;14.09;57.25
60820;BME280;46641;48.904;9.126;2022-11-15T00:52:26;98335.22;;;14.09;57.45
60820;BME280;46641;48.904;9.126;2022-11-15T00:57:17;98322.25;;;14.08;57.29
60820;BME280;46641;48.904;9.126;2022-11-15T01:02:07;98320.25;;;14.10;57.41
60820;BME280;46641;48.904;9.126;2022-11-15T01:06:57;98318.41;;;14.10;57.44
60820;BME280;46641;48.904;9.126;2022-11-15T01:11:48;98313.34;;;14.09;57.30
60820;BME280;46641;48.904;9.126;2022-11-15T01:16:38;98307.28;;;14.08;57.16
60820;BME280;46641;48.904;9.126;2022-11-15T01:21:28;98303.00;;;14.07;57.31
60820;BME280;46641;48.904;9.126;2022-11-15T01:26:18;98304.44;;;14.10;57.21
60820;BME280;46641;48.904;9.126;2022-11-15T01:31:13;98297.22;;;14.12;57.17
60820;BME280;46641;48.904;9.126;2022-11-15T01:36:04;98304.44;;;14.10;57.24
60820;BME280;46641;48.904;9.126;2022-11-15T01:40:55;98290.81;;;14.06;57.28
60820;BME280;46641;48.904;9.126;2022-11-15T01:45:51;98292.66;;;14.06;57.34
60820;BME280;46641;48.904;9.126;2022-11-15T01:50:44;98290.00;;;14.06;57.10
60820;BME280;46641;48.904;9.126;2022-11-15T01:55:34;98290.19;;;14.04;57.17
60820;BME280;46641;48.904;9.126;2022-11-15T02:00:25;98283.28;;;14.03;57.17
60820;BME280;46641;48.904;9.126;2022-11-15T02:05:15;98278.22;;;14.01;57.44
60820;BME280;46641;48.904;9.126;2022-11-15T02:10:17;98273.91;;;14.00;57.32
60820;BME280;46641;48.904;9.126;2022-11-15T02:15:08;98277.75;;;13.98;57.54
60820;BME280;46641;48.904;9.126;2022-11-15T02:20:20;98263.78;;;13.97;57.52
60820;BME280;46641;48.904;9.126;2022-11-15T02:36:33;98248.69;;;13.91;57.17
60820;BME280;46641;48.904;9.126;2022-11-15T02:41:39;98235.69;;;13.90;57.49
60820;BME280;46641;48.904;9.126;2022-11-15T02:46:37;98234.69;;;13.91;57.62
60820;BME280;46641;48.904;9.126;2022-11-15T02:51:48;98233.25;;;13.88;57.45
60820;BME280;46641;48.904;9.126;2022-11-15T02:56:40;98232.91;;;13.91;57.52
60820;BME280;46641;48.904;9.126;2022-11-15T03:06:56;98222.38;;;13.91;57.34
60820;BME280;46641;48.904;9.126;2022-11-15T03:11:52;98227.28;;;13.94;57.13
60820;BME280;46641;48.904;9.126;2022-11-15T03:21:56;98208.88;;;13.94;57.29
60820;BME280;46641;48.904;9.126;2022-11-15T03:26:48;98204.56;;;13.93;57.38
60820;BME280;46641;48.904;9.126;2022-11-15T03:31:43;98206.59;;;13.91;57.48
60820;BME280;46641;48.904;9.126;2022-11-15T03:36:38;98211.66;;;13.93;57.41
60820;BME280;46641;48.904;9.126;2022-11-15T03:41:35;98191.63;;;13.92;57.25
60820;BME280;46641;48.904;9.126;2022-11-15T03:46:33;98188.97;;;13.92;57.37
60820;BME280;46641;48.904;9.126;2022-11-15T03:51:25;98189.97;;;13.91;57.30
60820;BME280;46641;48.904;9.126;2022-11-15T03:56:16;98177.81;;;13.90;57.38
60820;BME280;46641;48.904;9.126;2022-11-15T04:01:06;98171.53;;;13.91;57.47
60820;BME280;46641;48.904;9.126;2022-11-15T04:05:57;98179.63;;;13.89;57.50
60820;BME280;46641;48.904;9.126;2022-11-15T04:10:49;98189.16;;;13.90;57.29
60820;BME280;46641;48.904;9.126;2022-11-15T04:15:39;98186.50;;;13.90;57.50
60820;BME280;46641;48.904;9.126;2022-11-15T04:20:30;98182.06;;;13.91;57.13
60820;BME280;46641;48.904;9.126;2022-11-15T04:25:40;98177.00;;;13.89;57.42
60820;BME280;46641;48.904;9.126;2022-11-15T04:30:31;98172.75;;;13.88;57.52
60820;BME280;46641;48.904;9.126;2022-11-15T04:35:21;98174.38;;;13.89;57.48
60820;BME280;46641;48.904;9.126;2022-11-15T04:40:11;98173.34;;;13.90;57.39
60820;BME280;46641;48.904;9.126;2022-11-15T04:45:02;98165.47;;;13.90;57.54
60820;BME280;46641;48.904;9.126;2022-11-15T04:49:52;98159.22;;;13.91;57.48
60820;BME280;46641;48.904;9.126;2022-11-15T04:54:42;98164.50;;;13.91;57.49
60820;BME280;46641;48.904;9.126;2022-11-15T04:59:33;98153.31;;;13.89;57.43
60820;BME280;46641;48.904;9.126;2022-11-15T05:04:23;98152.50;;;13.89;57.61
60820;BME280;46641;48.904;9.126;2022-11-15T05:09:13;98141.16;;;13.88;57.64
60820;BME280;46641;48.904;9.126;2022-11-15T05:14:04;98138.53;;;13.88;57.52
60820;BME280;46641;48.904;9.126;2022-11-15T05:18:55;98140.16;;;13.89;57.44
60820;BME280;46641;48.904;9.126;2022-11-15T05:23:46;98134.09;;;13.89;57.38
60820;BME280;46641;48.904;9.126;2022-11-15T05:28:36;98132.94;;;13.91;57.38
60820;BME280;46641;48.904;9.126;2022-11-15T05:33:27;98130.09;;;13.93;57.36
60820;BME280;46641;48.904;9.126;2022-11-15T05:38:17;98131.91;;;13.92;57.46
60820;BME280;46641;48.904;9.126;2022-11-15T05:43:07;98125.66;;;13.93;57.10
60820;BME280;46641;48.904;9.126;2022-11-15T05:48:00;98114.31;;;13.93;57.47
60820;BME280;46641;48.904;9.126;2022-11-15T05:52:55;98120.59;;;13.92;57.39
60820;BME280;46641;48.904;9.126;2022-11-15T05:57:46;98118.31;;;13.89;57.41
60820;BME280;46641;48.904;9.126;2022-11-15T06:02:36;98114.66;;;13.90;57.48
60820;BME280;46641;48.904;9.126;2022-11-15T06:07:29;98123.56;;;13.89;57.51
60820;BME280;46641;48.904;9.126;2022-11-15T06:12:19;98127.38;;;13.86;57.41
60820;BME280;46641;48.904;9.126;2022-11-15T06:17:09;98125.78;;;13.77;57.35
60820;BME280;46641;48.904;9.126;2022-11-15T06:22:00;98126.03;;;13.67;57.39
60820;BME280;46641;48.904;9.126;2022-11-15T06:26:50;98127.75;;;13.60;57.64
60820;BME280;46641;48.904;9.126;2022-11-15T06:31:41;98129.91;;;13.56;57.62
60820;BME280;46641;48.904;9.126;2022-11-15T06:36:34;98129.16;;;13.17;59.10
60820;BME280;46641;48.904;9.126;2022-11-15T06:41:24;98129.25;;;13.54;58.01
60820;BME280;46641;48.904;9.126;2022-11-15T06:46:14;98135.38;;;13.70;57.48
60820;BME280;46641;48.904;9.126;2022-11-15T06:51:05;98144.22;;;13.77;57.20
60820;BME280;46641;48.904;9.126;2022-11-15T06:56:03;98151.13;;;13.78;57.28
60820;BME280;46641;48.904;9.126;2022-11-15T07:00:58;98147.66;;;13.77;57.32
60820;BME280;46641;48.904;9.126;2022-11-15T07:05:53;98148.50;;;13.78;57.12
60820;BME280;46641;48.904;9.126;2022-11-15T07:10:44;98148.50;;;13.78;57.53
60820;BME280;46641;48.904;9.126;2022-11-15T07:15:34;98150.13;;;13.79;57.33
60820;BME280;46641;48.904;9.126;2022-11-15T07:20:25;98148.50;;;13.78;57.25
60820;BME280;46641;48.904;9.126;2022-11-15T07:25:15;98154.56;;;13.78;57.24
60820;BME280;46641;48.904;9.126;2022-11-15T07:30:06;98156.38;;;13.78;57.52
60820;BME280;46641;48.904;9.126;2022-11-15T07:34:56;98137.97;;;13.78;57.32
60820;BME280;46641;48.904;9.126;2022-11-15T07:39:46;98145.66;;;13.79;57.34
60820;BME280;46641;48.904;9.126;2022-11-15T07:44:37;98147.13;;;13.82;57.38
60820;BME280;46641;48.904;9.126;2022-11-15T07:49:27;98147.28;;;13.80;57.39
60820;BME280;46641;48.904;9.126;2022-11-15T07:54:17;98139.59;;;13.79;57.55
60820;BME280;46641;48.904;9.126;2022-11-15T07:59:07;98141.22;;;13.80;57.29
60820;BME280;46641;48.904;9.126;2022-11-15T08:03:58;98132.31;;;13.81;57.43
60820;BME280;46641;48.904;9.126;2022-11-15T08:08:48;98133.97;;;13.82;57.31
60820;BME280;46641;48.904;9.126;2022-11-15T08:13:38;98128.53;;;13.84;57.48
60820;BME280;46641;48.904;9.126;2022-11-15T08:18:29;98117.38;;;13.82;57.41
60820;BME280;46641;48.904;9.126;2022-11-15T08:23:19;98123.91;;;13.86;57.65
60820;BME280;46641;48.904;9.126;2022-11-15T08:28:10;98117.50;;;13.88;57.37
60820;BME280;46641;48.904;9.126;2022-11-15T08:33:00;98109.41;;;13.90;57.30
60820;BME280;46641;48.904;9.126;2022-11-15T08:37:52;98105.16;;;13.89;57.46
60820;BME280;46641;48.904;9.126;2022-11-15T08:42:45;98105.78;;;13.91;57.66
60820;BME280;46641;48.904;9.126;2022-11-15T08:47:36;98104.44;;;13.95;57.41
60820;BME280;46641;48.904;9.126;2022-11-15T08:52:26;98097.81;;;13.99;57.51
60820;BME280;46641;48.904;9.126;2022-11-15T08:57:17;98088.66;;;14.10;57.32
60820;BME280;46641;48.904;9.126;2022-11-15T09:02:12;98078.97;;;14.25;56.84
60820;BME280;46641;48.904;9.126;2022-11-15T09:07:02;98080.97;;;14.38;56.33
60820;BME280;46641;48.904;9.126;2022-11-15T09:11:53;98086.75;;;14.48;56.46
60820;BME280;46641;48.904;9.126;2022-11-15T09:16:44;98076.53;;;14.53;56.05
60820;BME280;46641;48.904;9.126;2022-11-15T09:21:34;98070.72;;;14.58;56.04
60820;BME280;46641;48.904;9.126;2022-11-15T09:26:24;98079.06;;;14.61;56.00
60820;BME280;46641;48.904;9.126;2022-11-15T09:31:14;98070.44;;;14.67;56.14
60820;BME280;46641;48.904;9.126;2022-11-15T09:36:09;98074.16;;;14.73;56.25
60820;BME280;46641;48.904;9.126;2022-11-15T09:41:18;98067.50;;;14.77;56.11
60820;BME280;46641;48.904;9.126;2022-11-15T09:51:33;98055.22;;;14.84;55.67
60820;BME280;46641;48.904;9.126;2022-11-15T09:56:30;98054.84;;;14.87;56.00
60820;BME280;46641;48.904;9.126;2022-11-15T10:06:26;98049.47;;;14.95;55.71
60820;BME280;46641;48.904;9.126;2022-11-15T10:11:25;98035.56;;;15.02;56.11
60820;BME280;46641;48.904;9.126;2022-11-15T10:26:56;98017.84;;;15.17;55.66
60820;BME280;46641;48.904;9.126;2022-11-15T10:31:47;98018.91;;;15.23;55.77
60820;BME280;46641;48.904;9.126;2022-11-15T10:36:37;98013.91;;;15.28;55.58
60820;BME280;46641;48.904;9.126;2022-11-15T10:46:22;98003.03;;;15.37;55.65
60820;BME280;46641;48.904;9.126;2022-11-15T10:51:26;97998.19;;;15.41;55.83
60820;BME280;46641;48.904;9.126;2022-11-15T10:56:20;97994.78;;;15.47;55.71
60820;BME280;46641;48.904;9.126;2022-11-15T11:01:19;97988.72;;;15.53;55.64
60820;BME280;46641;48.904;9.126;2022-11-15T11:06:17;97979.22;;;15.59;55.57
60820;BME280;46641;48.904;9.126;2022-11-15T11:11:07;97975.03;;;15.64;55.52
60820;BME280;46641;48.904;9.126;2022-11-15T11:21:15;97983.81;;;15.72;55.47
60820;BME280;46641;48.904;9.126;2022-11-15T11:36:27;97959.09;;;15.79;55.08
60820;BME280;46641;48.904;9.126;2022-11-15T11:46:53;97946.13;;;15.84;55.33
60820;BME280;46641;48.904;9.126;2022-11-15T11:56:50;97923.63;;;15.88;55.13
60820;BME280;46641;48.904;9.126;2022-11-15T12:01:43;97923.03;;;15.86;55.38
60820;BME280;46641;48.904;9.126;2022-11-15T12:11:35;97903.94;;;15.91;55.18
60820;BME280;46641;48.904;9.126;2022-11-15T12:16:28;97897.47;;;15.94;55.34
60820;BME280;46641;48.904;9.126;2022-11-15T12:21:44;97895.47;;;15.96;55.46
60820;BME280;46641;48.904;9.126;2022-11-15T12:26:41;97889.75;;;15.99;55.17
60820;BME280;46641;48.904;9.126;2022-11-15T12:31:41;97892.00;;;16.02;55.19
60820;BME280;46641;48.904;9.126;2022-11-15T12:36:40;97885.69;;;15.89;55.57
60820;BME280;46641;48.904;9.126;2022-11-15T12:41:33;97887.69;;;15.18;57.68
60820;BME280;46641;48.904;9.126;2022-11-15T12:52:07;97867.66;;;16.00;55.65
60820;BME280;46641;48.904;9.126;2022-11-15T12:56:32;97857.13;;;16.13;55.13
60820;BME280;46641;48.904;9.126;2022-11-15T13:06:42;97857.56;;;16.23;55.02
60820;BME280;46641;48.904;9.126;2022-11-15T13:11:52;97839.69;;;16.25;55.06
60820;BME280;46641;48.904;9.126;2022-11-15T13:16:43;97837.47;;;16.29;55.04
60820;BME280;46641;48.904;9.126;2022-11-15T13:21:34;97831.78;;;16.32;55.04
60820;BME280;46641;48.904;9.126;2022-11-15T13:26:43;97826.28;;;16.33;54.99
60820;BME280;46641;48.904;9.126;2022-11-15T13:31:37;97820.00;;;16.34;54.75
60820;BME280;46641;48.904;9.126;2022-11-15T13:36:31;97802.13;;;16.36;54.94
60820;BME280;46641;48.904;9.126;2022-11-15T13:41:31;97799.47;;;16.36;54.93
60820;BME280;46641;48.904;9.126;2022-11-15T13:46:24;97793.19;;;16.38;54.84
60820;BME280;46641;48.904;9.126;2022-11-15T13:51:35;97784.25;;;16.39;55.18
60820;BME280;46641;48.904;9.126;2022-11-15T13:56:27;97783.84;;;16.42;54.82
60820;BME280;46641;48.904;9.126;2022-11-15T14:01:20;97774.09;;;16.42;54.80
60820;BME280;46641;48.904;9.126;2022-11-15T14:06:16;97777.16;;;16.46;54.76
60820;BME280;46641;48.904;9.126;2022-11-15T14:11:12;97769.22;;;16.46;54.75
60820;BME280;46641;48.904;9.126;2022-11-15T14:16:20;97767.38;;;16.46;55.12
60820;BME280;46641;48.904;9.126;2022-11-15T14:21:11;97758.25;;;16.49;54.73
60820;BME280;46641;48.904;9.126;2022-11-15T14:26:01;97746.66;;;16.50;54.69
60820;BME280;46641;48.904;9.126;2022-11-15T14:30:54;97737.72;;;16.51;54.77
60820;BME280;46641;48.904;9.126;2022-11-15T14:35:45;97730.63;;;16.51;55.00
60820;BME280;46641;48.904;9.126;2022-11-15T14:40:35;97719.03;;;16.39;55.27
60820;BME280;46641;48.904;9.126;2022-11-15T14:45:27;97717.81;;;16.42;55.20
60820;BME280;46641;48.904;9.126;2022-11-15T14:50:19;97714.38;;;16.48;54.91
60820;BME280;46641;48.904;9.126;2022-11-15T14:55:34;97695.88;;;16.48;55.31
60820;BME280;46641;48.904;9.126;2022-11-15T15:00:26;97699.91;;;16.50;55.00
60820;BME280;46641;48.904;9.126;2022-11-15T15:05:19;97690.38;;;16.49;54.81
60820;BME280;46641;48.904;9.126;2022-11-15T15:10:10;97682.06;;;16.46;54.83
60820;BME280;46641;48.904;9.126;2022-11-15T15:15:01;97669.47;;;16.48;54.91
60820;BME280;46641;48.904;9.126;2022-11-15T15:19:51;97664.19;;;16.48;54.63
60820;BME280;46641;48.904;9.126;2022-11-15T15:24:43;97651.97;;;16.47;54.79
60820;BME280;46641;48.904;9.126;2022-11-15T15:29:33;97644.88;;;16.47;54.84
60820;BME280;46641;48.904;9.126;2022-11-15T15:34:23;97640.59;;;16.46;54.58
60820;BME280;46641;48.904;9.126;2022-11-15T15:39:14;97646.69;;;16.47;54.78
60820;BME280;46641;48.904;9.126;2022-11-15T15:44:04;97646.69;;;16.47;54.77
60820;BME280;46641;48.904;9.126;2022-11-15T15:48:54;97630.84;;;16.47;54.63
60820;BME280;46641;48.904;9.126;2022-11-15T15:53:45;97639.00;;;16.45;54.64
60820;BME280;46641;48.904;9.126;2022-11-15T15:58:36;97623.34;;;16.44;54.70
60820;BME280;46641;48.904;9.126;2022-11-15T16:03:26;97618.06;;;16.44;54.66
60820;BME280;46641;48.904;9.126;2022-11-15T16:08:24;97618.09;;;16.30;54.96
60820;BME280;46641;48.904;9.126;2022-11-15T16:13:16;97606.31;;;16.26;55.25
60820;BME280;46641;48.904;9.126;2022-11-15T16:18:17;97597.78;;;16.24;55.36
60820;BME280;46641;48.904;9.126;2022-11-15T16:23:16;97588.84;;;16.32;55.11
60820;BME280;46641;48.904;9.126;2022-11-15T16:28:27;97584.16;;;16.34;55.13
60820;BME280;46641;48.904;9.126;2022-11-15T16:33:18;97582.31;;;16.34;54.94
60820;BME280;46641;48.904;9.126;2022-11-15T16:38:14;97572.59;;;16.35;55.13
60820;BME280;46641;48.904;9.126;2022-11-15T16:43:04;97579.47;;;16.36;54.90
60820;BME280;46641;48.904;9.126;2022-11-15T16:47:55;97570.94;;;16.34;54.92
60820;BME280;46641;48.904;9.126;2022-11-15T16:52:46;97557.56;;;16.35;54.71
60820;BME280;46641;48.904;9.126;2022-11-15T16:57:36;97554.13;;;16.28;54.76
60820;BME280;46641;48.904;9.126;2022-11-15T17:02:27;97555.97;;;16.08;55.31
60820;BME280;46641;48.904;9.126;2022-11-15T17:07:17;97551.13;;;15.98;55.48
60820;BME280;46641;48.904;9.126;2022-11-15T17:12:08;97543.22;;;15.92;55.52
60820;BME280;46641;48.904;9.126;2022-11-15T17:16:58;97533.88;;;15.89;55.73
60820;BME280;46641;48.904;9.126;2022-11-15T17:21:48;97541.00;;;15.82;55.94
60820;BME280;46641;48.904;9.126;2022-11-15T17:26:39;97536.94;;;15.79;56.11
60820;BME280;46641;48.904;9.126;2022-11-15T17:31:29;97536.72;;;15.87;55.50
60820;BME280;46641;48.904;9.126;2022-11-15T17:36:22;97527.38;;;15.98;55.61
60820;BME280;46641;48.904;9.126;2022-11-15T17:41:14;97536.28;;;16.04;55.71
60820;BME280;46641;48.904;9.126;2022-11-15T17:46:11;97539.56;;;15.99;55.77
60820;BME280;46641;48.904;9.126;2022-11-15T17:51:04;97530.63;;;16.00;55.65
60820;BME280;46641;48.904;9.126;2022-11-15T17:56:00;97528.78;;;16.01;55.74
60820;BME280;46641;48.904;9.126;2022-11-15T18:00:51;97540.78;;;16.03;55.65
60820;BME280;46641;48.904;9.126;2022-11-15T18:05:41;97521.88;;;16.06;55.97
60820;BME280;46641;48.904;9.126;2022-11-15T18:10:32;97510.09;;;16.09;55.98
60820;BME280;46641;48.904;9.126;2022-11-15T18:15:23;97523.88;;;16.11;56.21
60820;BME280;46641;48.904;9.126;2022-11-15T18:20:13;97525.09;;;16.15;56.19
60820;BME280;46641;48.904;9.126;2022-11-15T18:25:04;97523.88;;;16.18;55.93
60820;BME280;46641;48.904;9.126;2022-11-15T18:29:54;97514.13;;;16.18;55.79
60820;BME280;46641;48.904;9.126;2022-11-15T18:34:45;97504.59;;;16.17;55.56
60820;BME280;46641;48.904;9.126;2022-11-15T18:39:37;97514.13;;;16.18;55.82
60820;BME280;46641;48.904;9.126;2022-11-15T18:44:28;97509.44;;;16.20;55.61
60820;BME280;46641;48.904;9.126;2022-11-15T18:49:19;97516.16;;;16.23;55.33
60820;BME280;46641;48.904;9.126;2022-11-15T18:54:11;97516.16;;;16.23;55.54
60820;BME280;46641;48.904;9.126;2022-11-15T18:59:02;97519.81;;;16.22;55.57
60820;BME280;46641;48.904;9.126;2022-11-15T19:03:55;97512.72;;;16.22;55.51
60820;BME280;46641;48.904;9.126;2022-11-15T19:08:47;97514.31;;;16.23;55.35
60820;BME280;46641;48.904;9.126;2022-11-15T19:13:38;97502.72;;;16.24;55.44
60820;BME280;46641;48.904;9.126;2022-11-15T19:18:30;97498.25;;;16.25;55.47
60820;BME280;46641;48.904;9.126;2022-11-15T19:23:21;97485.66;;;16.27;55.67
60820;BME280;46641;48.904;9.126;2022-11-15T19:28:12;97474.50;;;16.25;55.73
60820;BME280;46641;48.904;9.126;2022-11-15T19:33:02;97470.25;;;16.24;56.05
60820;BME280;46641;48.904;9.126;2022-11-15T19:37:53;97465.38;;;16.21;55.71
60820;BME280;46641;48.904;9.126;2022-11-15T19:42:43;97451.38;;;16.20;55.72
60820;BME280;46641;48.904;9.126;2022-11-15T19:47:33;97450.75;;;16.18;55.73
60820;BME280;46641;48.904;9.126;2022-11-15T19:52:23;97441.44;;;16.16;55.79
60820;BME280;46641;48.904;9.126;2022-11-15T19:57:14;97441.88;;;16.12;55.89
60820;BME280;46641;48.904;9.126;2022-11-15T20:02:04;97437.00;;;16.09;55.88
60820;BME280;46641;48.904;9.126;2022-11-15T20:06:54;97434.16;;;16.11;55.69
60820;BME280;46641;48.904;9.126;2022-11-15T20:11:45;97431.31;;;16.12;55.88
60820;BME280;46641;48.904;9.126;2022-11-15T20:16:35;97431.31;;;16.12;55.71
60820;BME280;46641;48.904;9.126;2022-11-15T20:21:26;97425.63;;;16.09;55.59
60820;BME280;46641;48.904;9.126;2022-11-15T20:26:17;97423.81;;;16.09;55.57
60820;BME280;46641;48.904;9.126;2022-11-15T20:31:08;97430.50;;;16.12;55.49
60820;BME280;46641;48.904;9.126;2022-11-15T20:36:06;97427.63;;;16.13;56.00
60820;BME280;46641;48.904;9.126;2022-11-15T20:40:57;97425.22;;;16.12;55.54
60820;BME280;46641;48.904;9.126;2022-11-15T20:45:48;97417.50;;;16.10;55.60
60820;BME280;46641;48.904;9.126;2022-11-15T20:50:40;97430.50;;;16.12;55.60
60820;BME280;46641;48.904;9.126;2022-11-15T20:55:31;97410.59;;;16.09;55.46
60820;BME280;46641;48.904;9.126;2022-11-15T21:00:21;97405.09;;;16.11;55.45
60820;BME280;46641;48.904;9.126;2022-11-15T21:05:14;97392.13;;;16.09;55.50
60820;BME280;46641;48.904;9.126;2022-11-15T21:10:05;97388.69;;;16.09;55.88
60820;BME280;46641;48.904;9.126;2022-11-15T21:15:14;97383.59;;;16.07;55.74
60820;BME280;46641;48.904;9.126;2022-11-15T21:20:05;97371.22;;;16.08;55.89
60820;BME280;46641;48.904;9.126;2022-11-15T21:24:55;97359.03;;;16.07;56.09
60820;BME280;46641;48.904;9.126;2022-11-15T21:29:48;97337.97;;;16.00;55.96
60820;BME280;46641;48.904;9.126;2022-11-15T21:34:38;97326.22;;;15.96;56.22
60820;BME280;46641;48.904;9.126;2022-11-15T21:39:29;97339.19;;;15.98;56.33
60820;BME280;46641;48.904;9.126;2022-11-15T21:44:19;97335.53;;;15.99;55.83
60820;BME280;46641;48.904;9.126;2022-11-15T21:49:10;97343.25;;;16.00;55.94
60820;BME280;46641;48.904;9.126;2022-11-15T21:54:00;97341.41;;;16.01;55.80
60820;BME280;46641;48.904;9.126;2022-11-15T21:58:52;97346.06;;;15.99;55.93
60820;BME280;46641;48.904;9.126;2022-11-15T22:03:43;97342.06;;;15.96;55.85
60820;BME280;46641;48.904;9.126;2022-11-15T22:08:33;97330.09;;;15.94;55.72
60820;BME280;46641;48.904;9.126;2022-11-15T22:13:24;97348.56;;;15.94;56.05
60820;BME280;46641;48.904;9.126;2022-11-15T22:18:15;97345.69;;;15.95;55.85
60820;BME280;46641;48.904;9.126;2022-11-15T22:23:06;97345.69;;;15.95;55.85
60820;BME280;46641;48.904;9.126;2022-11-15T22:27:56;97344.47;;;15.98;55.80
60820;BME280;46641;48.904;9.126;2022-11-15T22:32:46;97341.03;;;15.97;55.83
60820;BME280;46641;48.904;9.126;2022-11-15T22:37:37;97335.97;;;15.96;55.78
60820;BME280;46641;48.904;9.126;2022-11-15T22:42:28;97322.16;;;15.94;55.72
60820;BME280;46641;48.904;9.126;2022-11-15T22:47:18;97325.22;;;15.91;56.04
60820;BME280;46641;48.904;9.126;2022-11-15T22:52:09;97323.19;;;15.93;56.00
60820;BME280;46641;48.904;9.126;2022-11-15T22:57:00;97329.47;;;15.92;55.93
60820;BME280;46641;48.904;9.126;2022-11-15T23:01:50;97323.38;;;15.91;55.94
60820;BME280;46641;48.904;9.126;2022-11-15T23:06:41;97318.91;;;15.92;55.88
60820;BME280;46641;48.904;9.126;2022-11-15T23:11:31;97312.84;;;15.91;56.03
60820;BME280;46641;48.904;9.126;2022-11-15T23:16:40;97306.56;;;15.85;56.07
60820;BME280;46641;48.904;9.126;2022-11-15T23:21:33;97305.97;;;15.83;56.36
60820;BME280;46641;48.904;9.126;2022-11-15T23:26:42;97312.06;;;15.84;56.19
60820;BME280;46641;48.904;9.126;2022-11-15T23:31:33;97298.66;;;15.85;56.06
60820;BME280;46641;48.904;9.126;2022-11-15T23:36:42;97298.66;;;15.85;56.17
60820;BME280;46641;48.904;9.126;2022-11-15T23:41:33;97298.88;;;15.84;56.00
60820;BME280;46641;48.904;9.126;2022-11-15T23:46:23;97293.22;;;15.80;55.96
60820;BME280;46641;48.904;9.126;2022-11-15T23:51:14;97290.16;;;15.83;55.98
60820;BME280;46641;48.904;9.126;2022-11-15T23:56:12;97301.69;;;15.82;56.53
